sensor_id;sensor_type;location;lat;lon;timestamp;temperature;humidity
52187;DHT22;38161;53.020;6.598;2023-03-05T00:00:51;3.30;99.90
52187;DHT22;38161;53.020;6.598;2023-03-05T00:03:17;3.30;99.90
52187;DHT22;38161;53.020;6.598;2023-03-05T00:05:43;3.40;99.90
52187;DHT22;38161;53.020;6.598;2023-03-05T00:08:09;3.30;99.90
52187;DHT22;38161;53.020;6.598;2023-03-05T00:10:34;3.30;99.90
52187;DHT22;38161;53.020;6.598;2023-03-05T00:13:00;3.30;99.90
52187;DHT22;38161;53.020;6.598;2023-03-05T00:15:26;3.20;99.90
52187;DHT22;38161;53.020;6.598;2023-03-05T00:17:52;3.20;99.90
52187;DHT22;38161;53.020;6.598;2023-03-05T00:20:18;3.30;99.90
52187;DHT22;38161;53.020;6.598;2023-03-05T00:22:43;3.20;99.90
52187;DHT22;38161;53.020;6.598;2023-03-05T00:25:09;3.20;99.90
52187;DHT22;38161;53.020;6.598;2023-03-05T00:27:35;3.20;99.90
52187;DHT22;38161;53.020;6.598;2023-03-05T00:30:01;3.20;99.90
52187;DHT22;38161;53.020;6.598;2023-03-05T00:32:26;3.20;99.90
52187;DHT22;38161;53.020;6.598;2023-03-05T00:34:52;3.10;99.90
52187;DHT22;38161;53.020;6.598;2023-03-05T00:37:18;3.10;99.90
52187;DHT22;38161;53.020;6.598;2023-03-05T00:39:44;3.10;99.90
52187;DHT22;38161;53.020;6.598;2023-03-05T00:42:09;3.10;99.90
52187;DHT22;38161;53.020;6.598;2023-03-05T00:44:35;3.10;99.90
52187;DHT22;38161;53.020;6.598;2023-03-05T00:47:01;3.10;99.90
52187;DHT22;38161;53.020;6.598;2023-03-05T00:49:27;3.10;99.90
52187;DHT22;38161;53.020;6.598;2023-03-05T00:51:52;3.10;99.90
52187;DHT22;38161;53.020;6.598;2023-03-05T00:54:18;3.10;99.90
52187;DHT22;38161;53.020;6.598;2023-03-05T00:56:44;3.10;99.90
52187;DHT22;38161;53.020;6.598;2023-03-05T00:59:10;3.10;99.90
52187;DHT22;38161;53.020;6.598;2023-03-05T01:01:36;3.10;99.90
52187;DHT22;38161;53.020;6.598;2023-03-05T01:04:02;3.00;99.90
52187;DHT22;38161;53.020;6.598;2023-03-05T01:06:28;3.10;99.90
52187;DHT22;38161;53.020;6.598;2023-03-05T01:08:54;3.00;99.90
52187;DHT22;38161;53.020;6.598;2023-03-05T01:11:21;3.10;99.90
52187;DHT22;38161;53.020;6.598;2023-03-05T01:13:46;3.00;99.90
52187;DHT22;38161;53.020;6.598;2023-03-05T01:16:12;3.00;99.90
52187;DHT22;38161;53.020;6.598;2023-03-05T01:18:40;3.00;99.90
52187;DHT22;38161;53.020;6.598;2023-03-05T01:21:06;3.00;99.90
52187;DHT22;38161;53.020;6.598;2023-03-05T01:23:32;3.00;99.90
52187;DHT22;38161;53.020;6.598;2023-03-05T01:26:00;3.00;99.90
52187;DHT22;38161;53.020;6.598;2023-03-05T01:28:26;3.00;99.90
52187;DHT22;38161;53.020;6.598;2023-03-05T01:30:53;3.00;99.90
52187;DHT22;38161;53.020;6.598;2023-03-05T01:33:19;3.00;99.90
52187;DHT22;38161;53.020;6.598;2023-03-05T01:35:46;3.00;99.90
52187;DHT22;38161;53.020;6.598;2023-03-05T01:38:12;3.00;99.90
52187;DHT22;38161;53.020;6.598;2023-03-05T01:40:40;3.00;99.90
52187;DHT22;38161;53.020;6.598;2023-03-05T01:46:10;3.00;99.90
52187;DHT22;38161;53.020;6.598;2023-03-05T01:48:25;3.00;99.90
52187;DHT22;38161;53.020;6.598;2023-03-05T01:50:51;3.30;99.90
52187;DHT22;38161;53.020;6.598;2023-03-05T01:53:17;2.90;99.90
52187;DHT22;38161;53.020;6.598;2023-03-05T01:55:43;2.90;99.90
52187;DHT22;38161;53.020;6.598;2023-03-05T01:58:10;2.90;99.90
52187;DHT22;38161;53.020;6.598;2023-03-05T02:00:42;2.80;99.90
52187;DHT22;38161;53.020;6.598;2023-03-05T02:03:10;2.90;99.90
52187;DHT22;38161;53.020;6.598;2023-03-05T02:05:38;2.80;99.90
52187;DHT22;38161;53.020;6.598;2023-03-05T02:08:06;2.80;99.90
52187;DHT22;38161;53.020;6.598;2023-03-05T02:10:34;2.80;99.90
52187;DHT22;38161;53.020;6.598;2023-03-05T02:13:04;2.80;99.90
52187;DHT22;38161;53.020;6.598;2023-03-05T02:15:31;2.70;99.90
52187;DHT22;38161;53.020;6.598;2023-03-05T02:17:58;2.70;99.90
52187;DHT22;38161;53.020;6.598;2023-03-05T02:20:28;2.70;99.90
52187;DHT22;38161;53.020;6.598;2023-03-05T02:22:54;2.60;99.90
52187;DHT22;38161;53.020;6.598;2023-03-05T02:25:24;2.70;99.90
52187;DHT22;38161;53.020;6.598;2023-03-05T02:28:02;2.70;99.90
52187;DHT22;38161;53.020;6.598;2023-03-05T02:30:31;2.70;99.90
52187;DHT22;38161;53.020;6.598;2023-03-05T02:32:57;2.70;99.90
52187;DHT22;38161;53.020;6.598;2023-03-05T02:35:24;2.70;99.90
52187;DHT22;38161;53.020;6.598;2023-03-05T02:37:50;2.70;99.90
52187;DHT22;38161;53.020;6.598;2023-03-05T02:40:16;2.70;99.90
52187;DHT22;38161;53.020;6.598;2023-03-05T02:42:42;2.70;99.90
52187;DHT22;38161;53.020;6.598;2023-03-05T02:45:09;2.70;99.90
52187;DHT22;38161;53.020;6.598;2023-03-05T02:47:35;2.60;99.90
52187;DHT22;38161;53.020;6.598;2023-03-05T02:50:01;2.70;99.90
52187;DHT22;38161;53.020;6.598;2023-03-05T02:52:28;2.60;99.90
52187;DHT22;38161;53.020;6.598;2023-03-05T02:54:55;2.50;99.90
52187;DHT22;38161;53.020;6.598;2023-03-05T02:57:21;2.60;99.90
52187;DHT22;38161;53.020;6.598;2023-03-05T02:59:47;2.50;99.90
52187;DHT22;38161;53.020;6.598;2023-03-05T03:02:13;2.50;99.90
52187;DHT22;38161;53.020;6.598;2023-03-05T03:04:39;2.50;99.90
52187;DHT22;38161;53.020;6.598;2023-03-05T03:07:05;2.70;99.90
52187;DHT22;38161;53.020;6.598;2023-03-05T03:09:33;2.50;99.90
52187;DHT22;38161;53.020;6.598;2023-03-05T03:11:59;2.50;99.90
52187;DHT22;38161;53.020;6.598;2023-03-05T03:14:25;2.50;99.90
52187;DHT22;38161;53.020;6.598;2023-03-05T03:16:50;2.50;99.90
52187;DHT22;38161;53.020;6.598;2023-03-05T03:19:16;2.50;99.90
52187;DHT22;38161;53.020;6.598;2023-03-05T03:21:42;2.50;99.90
52187;DHT22;38161;53.020;6.598;2023-03-05T03:24:07;2.50;99.90
52187;DHT22;38161;53.020;6.598;2023-03-05T03:26:33;2.50;99.90
52187;DHT22;38161;53.020;6.598;2023-03-05T03:28:59;2.50;99.90
52187;DHT22;38161;53.020;6.598;2023-03-05T03:31:24;2.50;99.90
52187;DHT22;38161;53.020;6.598;2023-03-05T03:33:50;2.50;99.90
52187;DHT22;38161;53.020;6.598;2023-03-05T03:36:16;2.50;99.90
52187;DHT22;38161;53.020;6.598;2023-03-05T03:38:42;2.50;99.90
52187;DHT22;38161;53.020;6.598;2023-03-05T03:41:08;2.50;99.90
52187;DHT22;38161;53.020;6.598;2023-03-05T03:43:35;2.50;99.90
52187;DHT22;38161;53.020;6.598;2023-03-05T03:46:03;2.50;99.90
52187;DHT22;38161;53.020;6.598;2023-03-05T03:48:28;2.40;99.90
52187;DHT22;38161;53.020;6.598;2023-03-05T03:50:54;2.50;99.90
52187;DHT22;38161;53.020;6.598;2023-03-05T03:53:20;2.50;99.90
52187;DHT22;38161;53.020;6.598;2023-03-05T03:55:45;2.50;99.90
52187;DHT22;38161;53.020;6.598;2023-03-05T03:58:12;2.60;99.90
52187;DHT22;38161;53.020;6.598;2023-03-05T04:00:39;2.50;99.90
52187;DHT22;38161;53.020;6.598;2023-03-05T04:03:04;2.90;99.90
52187;DHT22;38161;53.020;6.598;2023-03-05T04:05:30;2.50;99.90
52187;DHT22;38161;53.020;6.598;2023-03-05T04:07:56;2.50;99.90
52187;DHT22;38161;53.020;6.598;2023-03-05T04:10:23;2.40;99.90
52187;DHT22;38161;53.020;6.598;2023-03-05T04:12:48;2.40;99.90
52187;DHT22;38161;53.020;6.598;2023-03-05T04:15:14;2.40;99.90
52187;DHT22;38161;53.020;6.598;2023-03-05T04:17:40;2.40;99.90
52187;DHT22;38161;53.020;6.598;2023-03-05T04:20:06;2.40;99.90
52187;DHT22;38161;53.020;6.598;2023-03-05T04:22:35;2.40;99.90
52187;DHT22;38161;53.020;6.598;2023-03-05T04:25:02;2.30;99.90
52187;DHT22;38161;53.020;6.598;2023-03-05T04:27:32;2.40;99.90
52187;DHT22;38161;53.020;6.598;2023-03-05T04:29:59;2.30;99.90
52187;DHT22;38161;53.020;6.598;2023-03-05T04:32:25;2.30;99.90
52187;DHT22;38161;53.020;6.598;2023-03-05T04:34:54;2.40;99.90
52187;DHT22;38161;53.020;6.598;2023-03-05T04:37:20;2.30;99.90
52187;DHT22;38161;53.020;6.598;2023-03-05T04:39:46;2.30;99.90
52187;DHT22;38161;53.020;6.598;2023-03-05T04:42:12;2.30;99.90
52187;DHT22;38161;53.020;6.598;2023-03-05T04:44:38;2.40;99.90
52187;DHT22;38161;53.020;6.598;2023-03-05T04:47:03;2.40;99.90
52187;DHT22;38161;53.020;6.598;2023-03-05T04:49:29;2.30;99.90
52187;DHT22;38161;53.020;6.598;2023-03-05T04:51:55;2.30;99.90
52187;DHT22;38161;53.020;6.598;2023-03-05T04:54:22;2.30;99.90
52187;DHT22;38161;53.020;6.598;2023-03-05T04:56:48;2.30;99.90
52187;DHT22;38161;53.020;6.598;2023-03-05T04:59:14;2.30;99.90
52187;DHT22;38161;53.020;6.598;2023-03-05T05:01:39;2.30;99.90
52187;DHT22;38161;53.020;6.598;2023-03-05T05:04:05;2.30;99.90
52187;DHT22;38161;53.020;6.598;2023-03-05T05:06:31;2.30;99.90
52187;DHT22;38161;53.020;6.598;2023-03-05T05:08:57;2.30;99.90
52187;DHT22;38161;53.020;6.598;2023-03-05T05:11:23;2.30;99.90
52187;DHT22;38161;53.020;6.598;2023-03-05T05:13:49;2.30;99.90
52187;DHT22;38161;53.020;6.598;2023-03-05T05:16:14;2.30;99.90
52187;DHT22;38161;53.020;6.598;2023-03-05T05:18:41;2.30;99.90
52187;DHT22;38161;53.020;6.598;2023-03-05T05:21:12;2.30;99.90
52187;DHT22;38161;53.020;6.598;2023-03-05T05:23:38;2.30;99.90
52187;DHT22;38161;53.020;6.598;2023-03-05T05:26:06;2.30;99.90
52187;DHT22;38161;53.020;6.598;2023-03-05T05:28:33;2.20;99.90
52187;DHT22;38161;53.020;6.598;2023-03-05T05:31:00;2.20;99.90
52187;DHT22;38161;53.020;6.598;2023-03-05T05:33:30;2.40;99.90
52187;DHT22;38161;53.020;6.598;2023-03-05T05:35:56;2.30;99.90
52187;DHT22;38161;53.020;6.598;2023-03-05T05:38:22;2.30;99.90
52187;DHT22;38161;53.020;6.598;2023-03-05T05:40:48;2.30;99.90
52187;DHT22;38161;53.020;6.598;2023-03-05T05:43:13;2.30;99.90
52187;DHT22;38161;53.020;6.598;2023-03-05T05:45:39;2.30;99.90
52187;DHT22;38161;53.020;6.598;2023-03-05T05:48:06;2.30;99.90
52187;DHT22;38161;53.020;6.598;2023-03-05T05:50:32;2.30;99.90
52187;DHT22;38161;53.020;6.598;2023-03-05T05:52:57;2.30;99.90
52187;DHT22;38161;53.020;6.598;2023-03-05T05:55:23;2.30;99.90
52187;DHT22;38161;53.020;6.598;2023-03-05T05:57:49;2.30;99.90
52187;DHT22;38161;53.020;6.598;2023-03-05T06:00:15;2.30;99.90
52187;DHT22;38161;53.020;6.598;2023-03-05T06:02:41;2.30;99.90
52187;DHT22;38161;53.020;6.598;2023-03-05T06:05:11;2.30;99.90
52187;DHT22;38161;53.020;6.598;2023-03-05T06:07:37;2.30;99.90
52187;DHT22;38161;53.020;6.598;2023-03-05T06:10:03;2.20;99.90
52187;DHT22;38161;53.020;6.598;2023-03-05T06:12:29;2.30;99.90
52187;DHT22;38161;53.020;6.598;2023-03-05T06:14:54;2.20;99.90
52187;DHT22;38161;53.020;6.598;2023-03-05T06:17:20;2.20;99.90
52187;DHT22;38161;53.020;6.598;2023-03-05T06:19:46;2.20;99.90
52187;DHT22;38161;53.020;6.598;2023-03-05T06:22:11;2.20;99.90
52187;DHT22;38161;53.020;6.598;2023-03-05T06:24:38;2.20;99.90
52187;DHT22;38161;53.020;6.598;2023-03-05T06:27:04;2.10;99.90
52187;DHT22;38161;53.020;6.598;2023-03-05T06:29:30;2.10;99.90
52187;DHT22;38161;53.020;6.598;2023-03-05T06:31:56;2.10;99.90
52187;DHT22;38161;53.020;6.598;2023-03-05T06:34:22;2.10;99.90
52187;DHT22;38161;53.020;6.598;2023-03-05T06:36:48;2.10;99.90
52187;DHT22;38161;53.020;6.598;2023-03-05T06:39:14;2.10;99.90
52187;DHT22;38161;53.020;6.598;2023-03-05T06:41:40;2.10;99.90
52187;DHT22;38161;53.020;6.598;2023-03-05T06:44:06;2.20;99.90
52187;DHT22;38161;53.020;6.598;2023-03-05T06:46:34;2.10;99.90
52187;DHT22;38161;53.020;6.598;2023-03-05T06:49:02;2.10;99.90
52187;DHT22;38161;53.020;6.598;2023-03-05T06:51:29;2.10;99.90
52187;DHT22;38161;53.020;6.598;2023-03-05T06:53:59;2.50;99.90
52187;DHT22;38161;53.020;6.598;2023-03-05T06:56:25;2.10;99.90
52187;DHT22;38161;53.020;6.598;2023-03-05T06:58:51;2.10;99.90
52187;DHT22;38161;53.020;6.598;2023-03-05T07:01:18;2.10;99.90
52187;DHT22;38161;53.020;6.598;2023-03-05T07:03:44;2.20;99.90
52187;DHT22;38161;53.020;6.598;2023-03-05T07:06:12;2.20;99.90
52187;DHT22;38161;53.020;6.598;2023-03-05T07:08:39;2.20;99.90
52187;DHT22;38161;53.020;6.598;2023-03-05T07:11:16;2.20;99.90
52187;DHT22;38161;53.020;6.598;2023-03-05T07:13:43;2.20;99.90
52187;DHT22;38161;53.020;6.598;2023-03-05T07:16:15;2.20;99.90
52187;DHT22;38161;53.020;6.598;2023-03-05T07:18:41;2.30;99.90
52187;DHT22;38161;53.020;6.598;2023-03-05T07:21:08;2.30;99.90
52187;DHT22;38161;53.020;6.598;2023-03-05T07:23:35;2.30;99.90
52187;DHT22;38161;53.020;6.598;2023-03-05T07:26:02;2.30;99.90
52187;DHT22;38161;53.020;6.598;2023-03-05T07:28:28;2.30;99.90
52187;DHT22;38161;53.020;6.598;2023-03-05T07:31:01;2.40;99.90
52187;DHT22;38161;53.020;6.598;2023-03-05T07:33:28;2.40;99.90
52187;DHT22;38161;53.020;6.598;2023-03-05T07:35:54;2.50;99.90
52187;DHT22;38161;53.020;6.598;2023-03-05T07:38:20;2.50;99.90
52187;DHT22;38161;53.020;6.598;2023-03-05T07:40:46;2.60;99.90
52187;DHT22;38161;53.020;6.598;2023-03-05T07:43:12;2.60;99.90
52187;DHT22;38161;53.020;6.598;2023-03-05T07:45:39;2.70;99.90
52187;DHT22;38161;53.020;6.598;2023-03-05T07:48:06;2.70;99.90
52187;DHT22;38161;53.020;6.598;2023-03-05T07:50:32;2.80;99.90
52187;DHT22;38161;53.020;6.598;2023-03-05T07:52:58;2.90;99.90
52187;DHT22;38161;53.020;6.598;2023-03-05T07:55:24;2.90;99.90
52187;DHT22;38161;53.020;6.598;2023-03-05T07:57:50;2.90;99.90
52187;DHT22;38161;53.020;6.598;2023-03-05T08:00:16;3.00;99.90
52187;DHT22;38161;53.020;6.598;2023-03-05T08:02:42;3.10;99.90
52187;DHT22;38161;53.020;6.598;2023-03-05T08:05:08;3.10;99.90
52187;DHT22;38161;53.020;6.598;2023-03-05T08:07:33;3.10;99.90
52187;DHT22;38161;53.020;6.598;2023-03-05T08:09:59;3.20;99.90
52187;DHT22;38161;53.020;6.598;2023-03-05T08:12:25;3.20;99.90
52187;DHT22;38161;53.020;6.598;2023-03-05T08:14:51;3.30;99.90
52187;DHT22;38161;53.020;6.598;2023-03-05T08:17:16;3.30;99.90
52187;DHT22;38161;53.020;6.598;2023-03-05T08:19:42;3.40;99.90
52187;DHT22;38161;53.020;6.598;2023-03-05T08:22:08;3.50;99.90
52187;DHT22;38161;53.020;6.598;2023-03-05T08:24:34;3.50;99.90
52187;DHT22;38161;53.020;6.598;2023-03-05T08:27:00;3.60;99.90
52187;DHT22;38161;53.020;6.598;2023-03-05T08:29:25;3.60;99.90
52187;DHT22;38161;53.020;6.598;2023-03-05T08:31:52;3.60;99.90
52187;DHT22;38161;53.020;6.598;2023-03-05T08:34:19;3.90;99.90
52187;DHT22;38161;53.020;6.598;2023-03-05T08:36:45;3.80;99.90
52187;DHT22;38161;53.020;6.598;2023-03-05T08:39:12;3.90;99.90
52187;DHT22;38161;53.020;6.598;2023-03-05T08:41:38;3.90;99.90
52187;DHT22;38161;53.020;6.598;2023-03-05T08:44:03;4.00;99.90
52187;DHT22;38161;53.020;6.598;2023-03-05T08:46:29;4.00;99.90
52187;DHT22;38161;53.020;6.598;2023-03-05T08:48:55;4.00;99.90
52187;DHT22;38161;53.020;6.598;2023-03-05T08:51:22;4.00;99.90
52187;DHT22;38161;53.020;6.598;2023-03-05T08:53:53;4.10;99.90
52187;DHT22;38161;53.020;6.598;2023-03-05T08:56:19;4.10;99.90
52187;DHT22;38161;53.020;6.598;2023-03-05T08:58:45;4.10;99.90
52187;DHT22;38161;53.020;6.598;2023-03-05T09:01:11;4.20;99.90
52187;DHT22;38161;53.020;6.598;2023-03-05T09:03:39;4.30;99.90
52187;DHT22;38161;53.020;6.598;2023-03-05T09:06:07;4.40;99.90
52187;DHT22;38161;53.020;6.598;2023-03-05T09:08:33;4.50;99.90
52187;DHT22;38161;53.020;6.598;2023-03-05T09:11:04;4.60;99.90
52187;DHT22;38161;53.020;6.598;2023-03-05T09:13:30;4.80;99.90
52187;DHT22;38161;53.020;6.598;2023-03-05T09:15:57;5.00;99.90
52187;DHT22;38161;53.020;6.598;2023-03-05T09:18:24;5.20;99.90
52187;DHT22;38161;53.020;6.598;2023-03-05T09:20:49;5.50;99.90
52187;DHT22;38161;53.020;6.598;2023-03-05T09:23:15;5.80;99.90
52187;DHT22;38161;53.020;6.598;2023-03-05T09:25:41;6.30;99.90
52187;DHT22;38161;53.020;6.598;2023-03-05T09:28:07;6.70;99.90
52187;DHT22;38161;53.020;6.598;2023-03-05T09:30:34;7.20;99.90
52187;DHT22;38161;53.020;6.598;2023-03-05T09:33:01;7.70;99.90
52187;DHT22;38161;53.020;6.598;2023-03-05T09:35:27;8.00;99.90
52187;DHT22;38161;53.020;6.598;2023-03-05T09:37:53;8.40;99.90
52187;DHT22;38161;53.020;6.598;2023-03-05T09:40:21;8.70;99.90
52187;DHT22;38161;53.020;6.598;2023-03-05T09:42:59;8.90;99.90
52187;DHT22;38161;53.020;6.598;2023-03-05T09:45:37;9.20;99.90
52187;DHT22;38161;53.020;6.598;2023-03-05T09:48:20;9.20;99.90
52187;DHT22;38161;53.020;6.598;2023-03-05T09:51:00;8.90;99.90
52187;DHT22;38161;53.020;6.598;2023-03-05T09:53:47;8.50;99.90
52187;DHT22;38161;53.020;6.598;2023-03-05T09:56:18;8.30;99.90
52187;DHT22;38161;53.020;6.598;2023-03-05T09:58:48;7.80;99.90
52187;DHT22;38161;53.020;6.598;2023-03-05T10:01:25;7.30;99.90
52187;DHT22;38161;53.020;6.598;2023-03-05T10:07:33;6.50;99.90
52187;DHT22;38161;53.020;6.598;2023-03-05T10:12:43;6.00;99.90
52187;DHT22;38161;53.020;6.598;2023-03-05T10:15:14;5.90;99.90
52187;DHT22;38161;53.020;6.598;2023-03-05T10:20:37;6.10;99.90
52187;DHT22;38161;53.020;6.598;2023-03-05T10:28:57;6.80;99.90
52187;DHT22;38161;53.020;6.598;2023-03-05T10:32:10;6.80;99.90
52187;DHT22;38161;53.020;6.598;2023-03-05T10:45:17;6.00;99.90
52187;DHT22;38161;53.020;6.598;2023-03-05T10:47:58;5.90;99.90
52187;DHT22;38161;53.020;6.598;2023-03-05T10:50:29;6.00;99.90
52187;DHT22;38161;53.020;6.598;2023-03-05T10:56:03;6.80;99.90
52187;DHT22;38161;53.020;6.598;2023-03-05T10:58:29;7.90;99.90
52187;DHT22;38161;53.020;6.598;2023-03-05T11:01:32;8.80;99.90
52187;DHT22;38161;53.020;6.598;2023-03-05T11:03:54;9.70;99.90
52187;DHT22;38161;53.020;6.598;2023-03-05T11:06:37;10.50;99.90
52187;DHT22;38161;53.020;6.598;2023-03-05T11:14:29;12.50;99.90
52187;DHT22;38161;53.020;6.598;2023-03-05T11:16:59;13.00;99.90
52187;DHT22;38161;53.020;6.598;2023-03-05T11:19:26;13.30;99.90
52187;DHT22;38161;53.020;6.598;2023-03-05T11:22:16;13.30;99.90
52187;DHT22;38161;53.020;6.598;2023-03-05T11:24:44;13.30;99.90
52187;DHT22;38161;53.020;6.598;2023-03-05T11:27:29;12.70;99.90
52187;DHT22;38161;53.020;6.598;2023-03-05T11:29:56;12.40;99.90
52187;DHT22;38161;53.020;6.598;2023-03-05T11:32:25;12.10;99.90
52187;DHT22;38161;53.020;6.598;2023-03-05T11:34:52;12.30;99.90
52187;DHT22;38161;53.020;6.598;2023-03-05T11:42:37;12.10;99.90
52187;DHT22;38161;53.020;6.598;2023-03-05T11:45:05;12.50;99.90
52187;DHT22;38161;53.020;6.598;2023-03-05T11:47:49;13.00;99.90
52187;DHT22;38161;53.020;6.598;2023-03-05T11:50:20;13.50;99.90
52187;DHT22;38161;53.020;6.598;2023-03-05T11:52:48;13.90;99.90
52187;DHT22;38161;53.020;6.598;2023-03-05T11:55:26;14.30;99.90
52187;DHT22;38161;53.020;6.598;2023-03-05T11:58:09;14.50;99.90
52187;DHT22;38161;53.020;6.598;2023-03-05T12:00:42;14.30;99.90
52187;DHT22;38161;53.020;6.598;2023-03-05T12:03:14;14.00;99.90
52187;DHT22;38161;53.020;6.598;2023-03-05T12:05:47;13.80;99.90
52187;DHT22;38161;53.020;6.598;2023-03-05T12:08:17;13.50;99.90
52187;DHT22;38161;53.020;6.598;2023-03-05T12:10:46;13.00;99.90
52187;DHT22;38161;53.020;6.598;2023-03-05T12:13:28;12.50;99.90
52187;DHT22;38161;53.020;6.598;2023-03-05T12:19:07;11.90;99.90
52187;DHT22;38161;53.020;6.598;2023-03-05T12:21:39;11.40;99.90
52187;DHT22;38161;53.020;6.598;2023-03-05T12:29:47;10.40;99.90
52187;DHT22;38161;53.020;6.598;2023-03-05T12:35:22;10.10;99.90
52187;DHT22;38161;53.020;6.598;2023-03-05T12:42:52;10.10;99.90
52187;DHT22;38161;53.020;6.598;2023-03-05T12:47:47;9.90;99.90
52187;DHT22;38161;53.020;6.598;2023-03-05T12:53:17;9.50;99.90
52187;DHT22;38161;53.020;6.598;2023-03-05T13:01:06;9.50;99.90
52187;DHT22;38161;53.020;6.598;2023-03-05T13:03:56;9.60;99.90
52187;DHT22;38161;53.020;6.598;2023-03-05T13:06:34;9.70;99.90
52187;DHT22;38161;53.020;6.598;2023-03-05T13:09:16;9.50;99.90
52187;DHT22;38161;53.020;6.598;2023-03-05T13:11:45;9.40;99.90
52187;DHT22;38161;53.020;6.598;2023-03-05T13:17:00;9.30;99.90
52187;DHT22;38161;53.020;6.598;2023-03-05T13:19:27;9.30;99.90
52187;DHT22;38161;53.020;6.598;2023-03-05T13:22:02;9.30;99.90
52187;DHT22;38161;53.020;6.598;2023-03-05T13:24:29;9.20;99.90
52187;DHT22;38161;53.020;6.598;2023-03-05T13:26:55;9.00;99.90
52187;DHT22;38161;53.020;6.598;2023-03-05T13:29:23;8.70;99.90
52187;DHT22;38161;53.020;6.598;2023-03-05T13:32:10;8.50;99.90
52187;DHT22;38161;53.020;6.598;2023-03-05T13:34:43;8.40;99.90
52187;DHT22;38161;53.020;6.598;2023-03-05T13:37:18;8.20;99.90
52187;DHT22;38161;53.020;6.598;2023-03-05T13:40:00;8.10;99.90
52187;DHT22;38161;53.020;6.598;2023-03-05T13:42:28;8.00;99.90
52187;DHT22;38161;53.020;6.598;2023-03-05T13:44:59;7.90;99.90
52187;DHT22;38161;53.020;6.598;2023-03-05T13:47:30;7.90;99.90
52187;DHT22;38161;53.020;6.598;2023-03-05T13:49:58;7.90;99.90
52187;DHT22;38161;53.020;6.598;2023-03-05T13:52:42;7.90;99.90
52187;DHT22;38161;53.020;6.598;2023-03-05T13:55:13;7.90;99.90
52187;DHT22;38161;53.020;6.598;2023-03-05T13:57:58;7.90;99.90
52187;DHT22;38161;53.020;6.598;2023-03-05T14:00:32;7.90;99.90
52187;DHT22;38161;53.020;6.598;2023-03-05T14:03:26;7.90;99.90
52187;DHT22;38161;53.020;6.598;2023-03-05T14:05:52;7.80;99.90
52187;DHT22;38161;53.020;6.598;2023-03-05T14:08:22;7.90;99.90
52187;DHT22;38161;53.020;6.598;2023-03-05T14:10:49;7.90;99.90
52187;DHT22;38161;53.020;6.598;2023-03-05T14:13:18;7.90;99.90
52187;DHT22;38161;53.020;6.598;2023-03-05T14:16:08;8.00;99.90
52187;DHT22;38161;53.020;6.598;2023-03-05T14:18:35;8.00;99.90
52187;DHT22;38161;53.020;6.598;2023-03-05T14:28:50;8.10;99.90
52187;DHT22;38161;53.020;6.598;2023-03-05T14:31:17;7.90;99.90
52187;DHT22;38161;53.020;6.598;2023-03-05T14:33:44;7.90;99.90
52187;DHT22;38161;53.020;6.598;2023-03-05T14:36:10;7.80;99.90
52187;DHT22;38161;53.020;6.598;2023-03-05T14:38:40;7.80;99.90
52187;DHT22;38161;53.020;6.598;2023-03-05T14:41:40;7.80;99.90
52187;DHT22;38161;53.020;6.598;2023-03-05T14:44:24;7.70;99.90
52187;DHT22;38161;53.020;6.598;2023-03-05T14:46:51;7.70;99.90
52187;DHT22;38161;53.020;6.598;2023-03-05T14:49:16;7.70;99.90
52187;DHT22;38161;53.020;6.598;2023-03-05T14:51:43;7.70;99.90
52187;DHT22;38161;53.020;6.598;2023-03-05T14:54:22;7.80;99.90
52187;DHT22;38161;53.020;6.598;2023-03-05T14:56:49;7.80;99.90
52187;DHT22;38161;53.020;6.598;2023-03-05T14:59:19;7.70;99.90
52187;DHT22;38161;53.020;6.598;2023-03-05T15:01:47;7.80;99.90
52187;DHT22;38161;53.020;6.598;2023-03-05T15:04:15;7.70;99.90
52187;DHT22;38161;53.020;6.598;2023-03-05T15:06:44;7.70;99.90
52187;DHT22;38161;53.020;6.598;2023-03-05T15:09:13;7.70;99.90
52187;DHT22;38161;53.020;6.598;2023-03-05T15:11:43;7.70;99.90
52187;DHT22;38161;53.020;6.598;2023-03-05T15:14:10;7.60;99.90
52187;DHT22;38161;53.020;6.598;2023-03-05T15:16:36;7.50;99.90
52187;DHT22;38161;53.020;6.598;2023-03-05T15:19:01;7.40;99.90
52187;DHT22;38161;53.020;6.598;2023-03-05T15:21:28;7.20;99.90
52187;DHT22;38161;53.020;6.598;2023-03-05T15:23:54;7.20;99.90
52187;DHT22;38161;53.020;6.598;2023-03-05T15:26:20;7.10;99.90
52187;DHT22;38161;53.020;6.598;2023-03-05T15:28:46;7.00;99.90
52187;DHT22;38161;53.020;6.598;2023-03-05T15:31:12;7.00;99.90
52187;DHT22;38161;53.020;6.598;2023-03-05T15:33:40;6.90;99.90
52187;DHT22;38161;53.020;6.598;2023-03-05T15:36:07;6.90;99.90
52187;DHT22;38161;53.020;6.598;2023-03-05T15:38:34;6.80;99.90
52187;DHT22;38161;53.020;6.598;2023-03-05T15:41:03;6.80;99.90
52187;DHT22;38161;53.020;6.598;2023-03-05T15:43:29;6.80;99.90
52187;DHT22;38161;53.020;6.598;2023-03-05T15:45:55;6.70;99.90
52187;DHT22;38161;53.020;6.598;2023-03-05T15:48:21;6.70;99.90
52187;DHT22;38161;53.020;6.598;2023-03-05T15:50:47;6.60;99.90
52187;DHT22;38161;53.020;6.598;2023-03-05T15:53:13;6.70;99.90
52187;DHT22;38161;53.020;6.598;2023-03-05T15:55:43;6.70;99.90
52187;DHT22;38161;53.020;6.598;2023-03-05T15:58:12;6.60;99.90
52187;DHT22;38161;53.020;6.598;2023-03-05T16:00:39;6.60;99.90
52187;DHT22;38161;53.020;6.598;2023-03-05T16:03:05;6.60;99.90
52187;DHT22;38161;53.020;6.598;2023-03-05T16:05:33;6.60;99.90
52187;DHT22;38161;53.020;6.598;2023-03-05T16:08:00;6.50;99.90
52187;DHT22;38161;53.020;6.598;2023-03-05T16:10:27;6.50;99.90
52187;DHT22;38161;53.020;6.598;2023-03-05T16:13:02;6.50;99.90
52187;DHT22;38161;53.020;6.598;2023-03-05T16:15:30;6.40;99.90
52187;DHT22;38161;53.020;6.598;2023-03-05T16:17:59;6.40;99.90
52187;DHT22;38161;53.020;6.598;2023-03-05T16:20:26;6.30;99.90
52187;DHT22;38161;53.020;6.598;2023-03-05T16:22:51;6.30;99.90
52187;DHT22;38161;53.020;6.598;2023-03-05T16:25:17;6.20;99.90
52187;DHT22;38161;53.020;6.598;2023-03-05T16:27:43;6.20;99.90
52187;DHT22;38161;53.020;6.598;2023-03-05T16:30:10;6.20;99.90
52187;DHT22;38161;53.020;6.598;2023-03-05T16:32:38;6.10;99.90
52187;DHT22;38161;53.020;6.598;2023-03-05T16:35:04;6.00;99.90
52187;DHT22;38161;53.020;6.598;2023-03-05T16:37:30;6.00;99.90
52187;DHT22;38161;53.020;6.598;2023-03-05T16:39:59;5.90;99.90
52187;DHT22;38161;53.020;6.598;2023-03-05T16:42:25;5.90;99.90
52187;DHT22;38161;53.020;6.598;2023-03-05T16:44:51;5.90;99.90
52187;DHT22;38161;53.020;6.598;2023-03-05T16:47:17;5.90;99.90
52187;DHT22;38161;53.020;6.598;2023-03-05T16:49:42;5.90;99.90
52187;DHT22;38161;53.020;6.598;2023-03-05T16:52:08;5.90;99.90
52187;DHT22;38161;53.020;6.598;2023-03-05T16:54:36;5.90;99.90
52187;DHT22;38161;53.020;6.598;2023-03-05T16:57:06;5.80;99.90
52187;DHT22;38161;53.020;6.598;2023-03-05T16:59:34;5.80;99.90
52187;DHT22;38161;53.020;6.598;2023-03-05T17:02:00;5.80;99.90
52187;DHT22;38161;53.020;6.598;2023-03-05T17:04:25;5.70;99.90
52187;DHT22;38161;53.020;6.598;2023-03-05T17:06:51;5.70;99.90
52187;DHT22;38161;53.020;6.598;2023-03-05T17:09:18;5.70;99.90
52187;DHT22;38161;53.020;6.598;2023-03-05T17:11:51;5.70;99.90